sensor_id;sensor_type;location;lat;lon;timestamp;P1;durP1;ratioP1;P2;durP2;ratioP2
10469;SDS011;5282;47.052;15.458;2022-07-30T00:01:20;5.33;;;5.03;;
10469;SDS011;5282;47.052;15.458;2022-07-30T00:03:47;5.30;;;5.10;;
10469;SDS011;5282;47.052;15.458;2022-07-30T00:06:15;5.03;;;4.83;;
10469;SDS011;5282;47.052;15.458;2022-07-30T00:08:42;5.07;;;4.87;;
10469;SDS011;5282;47.052;15.458;2022-07-30T00:11:12;4.57;;;4.47;;
10469;SDS011;5282;47.052;15.458;2022-07-30T00:13:40;5.00;;;4.80;;
10469;SDS011;5282;47.052;15.458;2022-07-30T00:16:06;4.50;;;4.40;;
10469;SDS011;5282;47.052;15.458;2022-07-30T00:18:33;4.57;;;4.47;;
10469;SDS011;5282;47.052;15.458;2022-07-30T00:21:01;5.07;;;4.83;;
10469;SDS011;5282;47.052;15.458;2022-07-30T00:23:29;4.87;;;4.67;;
10469;SDS011;5282;47.052;15.458;2022-07-30T00:25:59;5.17;;;4.87;;
10469;SDS011;5282;47.052;15.458;2022-07-30T00:28:26;5.30;;;5.03;;
10469;SDS011;5282;47.052;15.458;2022-07-30T00:30:53;5.23;;;5.03;;
10469;SDS011;5282;47.052;15.458;2022-07-30T00:33:20;5.43;;;5.10;;
10469;SDS011;5282;47.052;15.458;2022-07-30T00:35:47;5.30;;;5.10;;
10469;SDS011;5282;47.052;15.458;2022-07-30T00:38:16;5.57;;;5.37;;
10469;SDS011;5282;47.052;15.458;2022-07-30T00:40:46;5.00;;;4.90;;
10469;SDS011;5282;47.052;15.458;2022-07-30T00:43:14;5.13;;;4.93;;
10469;SDS011;5282;47.052;15.458;2022-07-30T00:45:41;5.30;;;5.10;;
10469;SDS011;5282;47.052;15.458;2022-07-30T00:48:09;4.80;;;4.70;;
10469;SDS011;5282;47.052;15.458;2022-07-30T00:50:36;5.13;;;5.03;;
10469;SDS011;5282;47.052;15.458;2022-07-30T00:53:03;5.30;;;5.00;;
10469;SDS011;5282;47.052;15.458;2022-07-30T00:55:30;5.40;;;5.30;;
10469;SDS011;5282;47.052;15.458;2022-07-30T00:57:58;5.50;;;5.30;;
10469;SDS011;5282;47.052;15.458;2022-07-30T01:00:26;5.83;;;5.30;;
10469;SDS011;5282;47.052;15.458;2022-07-30T01:02:53;5.60;;;5.20;;
10469;SDS011;5282;47.052;15.458;2022-07-30T01:05:20;5.13;;;4.93;;
10469;SDS011;5282;47.052;15.458;2022-07-30T01:07:47;5.57;;;5.30;;
10469;SDS011;5282;47.052;15.458;2022-07-30T01:10:15;5.60;;;5.30;;
10469;SDS011;5282;47.052;15.458;2022-07-30T01:12:42;5.77;;;5.40;;
10469;SDS011;5282;47.052;15.458;2022-07-30T01:15:11;5.43;;;5.23;;
10469;SDS011;5282;47.052;15.458;2022-07-30T01:17:39;6.10;;;5.77;;
10469;SDS011;5282;47.052;15.458;2022-07-30T01:20:08;5.77;;;5.47;;
10469;SDS011;5282;47.052;15.458;2022-07-30T01:22:42;6.50;;;6.20;;
10469;SDS011;5282;47.052;15.458;2022-07-30T01:25:21;5.93;;;5.73;;
10469;SDS011;5282;47.052;15.458;2022-07-30T01:28:00;5.90;;;5.70;;
10469;SDS011;5282;47.052;15.458;2022-07-30T01:30:30;5.87;;;5.57;;
10469;SDS011;5282;47.052;15.458;2022-07-30T01:32:59;5.83;;;5.63;;
10469;SDS011;5282;47.052;15.458;2022-07-30T01:35:29;6.00;;;5.70;;
10469;SDS011;5282;47.052;15.458;2022-07-30T01:37:58;5.27;;;5.13;;
10469;SDS011;5282;47.052;15.458;2022-07-30T01:40:27;5.77;;;5.60;;
10469;SDS011;5282;47.052;15.458;2022-07-30T01:42:55;5.70;;;5.40;;
10469;SDS011;5282;47.052;15.458;2022-07-30T01:45:25;6.30;;;6.00;;
10469;SDS011;5282;47.052;15.458;2022-07-30T01:47:55;6.40;;;6.10;;
10469;SDS011;5282;47.052;15.458;2022-07-30T01:50:25;5.90;;;5.70;;
10469;SDS011;5282;47.052;15.458;2022-07-30T01:52:55;6.80;;;6.50;;
10469;SDS011;5282;47.052;15.458;2022-07-30T01:55:29;7.53;;;7.13;;
10469;SDS011;5282;47.052;15.458;2022-07-30T01:57:59;7.47;;;7.17;;
10469;SDS011;5282;47.052;15.458;2022-07-30T02:00:29;7.67;;;7.30;;
10469;SDS011;5282;47.052;15.458;2022-07-30T02:02:58;7.63;;;7.23;;
10469;SDS011;5282;47.052;15.458;2022-07-30T02:05:29;7.43;;;7.03;;
10469;SDS011;5282;47.052;15.458;2022-07-30T02:08:02;7.10;;;6.83;;
10469;SDS011;5282;47.052;15.458;2022-07-30T02:10:43;7.63;;;7.30;;
10469;SDS011;5282;47.052;15.458;2022-07-30T02:13:14;8.63;;;7.93;;
10469;SDS011;5282;47.052;15.458;2022-07-30T02:15:50;7.47;;;7.17;;
10469;SDS011;5282;47.052;15.458;2022-07-30T02:18:27;7.27;;;6.97;;
10469;SDS011;5282;47.052;15.458;2022-07-30T02:21:00;7.67;;;7.07;;
10469;SDS011;5282;47.052;15.458;2022-07-30T02:23:30;7.57;;;7.10;;
10469;SDS011;5282;47.052;15.458;2022-07-30T02:26:00;7.10;;;6.80;;
10469;SDS011;5282;47.052;15.458;2022-07-30T02:28:29;7.87;;;7.27;;
10469;SDS011;5282;47.052;15.458;2022-07-30T02:31:02;7.80;;;7.30;;
10469;SDS011;5282;47.052;15.458;2022-07-30T02:33:33;7.40;;;6.90;;
10469;SDS011;5282;47.052;15.458;2022-07-30T02:36:04;7.10;;;6.77;;
10469;SDS011;5282;47.052;15.458;2022-07-30T02:38:36;7.13;;;6.83;;
10469;SDS011;5282;47.052;15.458;2022-07-30T02:41:04;6.90;;;6.50;;
10469;SDS011;5282;47.052;15.458;2022-07-30T02:43:35;6.87;;;6.47;;
10469;SDS011;5282;47.052;15.458;2022-07-30T02:46:06;6.80;;;6.40;;
10469;SDS011;5282;47.052;15.458;2022-07-30T02:48:37;7.80;;;7.07;;
10469;SDS011;5282;47.052;15.458;2022-07-30T02:51:05;7.00;;;6.70;;
10469;SDS011;5282;47.052;15.458;2022-07-30T02:53:35;7.27;;;6.87;;
10469;SDS011;5282;47.052;15.458;2022-07-30T02:56:04;8.27;;;7.63;;
10469;SDS011;5282;47.052;15.458;2022-07-30T02:58:33;8.40;;;7.90;;
10469;SDS011;5282;47.052;15.458;2022-07-30T03:01:03;8.50;;;7.87;;
10469;SDS011;5282;47.052;15.458;2022-07-30T03:03:33;8.10;;;7.60;;
10469;SDS011;5282;47.052;15.458;2022-07-30T03:06:02;8.60;;;7.97;;
10469;SDS011;5282;47.052;15.458;2022-07-30T03:08:30;8.90;;;8.27;;
10469;SDS011;5282;47.052;15.458;2022-07-30T03:10:59;8.70;;;8.10;;
10469;SDS011;5282;47.052;15.458;2022-07-30T03:13:28;8.47;;;7.97;;
10469;SDS011;5282;47.052;15.458;2022-07-30T03:15:55;8.23;;;7.60;;
10469;SDS011;5282;47.052;15.458;2022-07-30T03:18:30;8.17;;;7.63;;
10469;SDS011;5282;47.052;15.458;2022-07-30T03:21:03;9.20;;;8.63;;
10469;SDS011;5282;47.052;15.458;2022-07-30T03:23:34;8.87;;;8.47;;
10469;SDS011;5282;47.052;15.458;2022-07-30T03:26:04;8.57;;;7.97;;
10469;SDS011;5282;47.052;15.458;2022-07-30T03:28:35;9.27;;;8.63;;
10469;SDS011;5282;47.052;15.458;2022-07-30T03:31:04;8.53;;;8.20;;
10469;SDS011;5282;47.052;15.458;2022-07-30T03:33:36;9.23;;;8.63;;
10469;SDS011;5282;47.052;15.458;2022-07-30T03:36:04;8.53;;;7.93;;
10469;SDS011;5282;47.052;15.458;2022-07-30T03:38:32;9.73;;;8.97;;
10469;SDS011;5282;47.052;15.458;2022-07-30T03:40:59;9.03;;;8.30;;
10469;SDS011;5282;47.052;15.458;2022-07-30T03:43:27;8.53;;;7.97;;
10469;SDS011;5282;47.052;15.458;2022-07-30T03:45:55;9.10;;;8.50;;
10469;SDS011;5282;47.052;15.458;2022-07-30T03:48:23;7.63;;;7.30;;
10469;SDS011;5282;47.052;15.458;2022-07-30T03:50:52;9.10;;;8.37;;
10469;SDS011;5282;47.052;15.458;2022-07-30T03:53:19;8.77;;;8.37;;
10469;SDS011;5282;47.052;15.458;2022-07-30T03:55:49;8.50;;;7.90;;
10469;SDS011;5282;47.052;15.458;2022-07-30T03:58:17;8.30;;;7.90;;
10469;SDS011;5282;47.052;15.458;2022-07-30T04:00:45;8.67;;;8.07;;
10469;SDS011;5282;47.052;15.458;2022-07-30T04:03:22;8.03;;;7.57;;
10469;SDS011;5282;47.052;15.458;2022-07-30T04:05:50;8.50;;;7.60;;
10469;SDS011;5282;47.052;15.458;2022-07-30T04:08:18;7.63;;;7.23;;
10469;SDS011;5282;47.052;15.458;2022-07-30T04:10:46;7.37;;;6.97;;
10469;SDS011;5282;47.052;15.458;2022-07-30T04:13:13;8.10;;;7.70;;
10469;SDS011;5282;47.052;15.458;2022-07-30T04:15:42;7.37;;;7.03;;
10469;SDS011;5282;47.052;15.458;2022-07-30T04:18:15;7.50;;;7.10;;
10469;SDS011;5282;47.052;15.458;2022-07-30T04:20:45;7.57;;;7.17;;
10469;SDS011;5282;47.052;15.458;2022-07-30T04:23:14;7.57;;;7.17;;
10469;SDS011;5282;47.052;15.458;2022-07-30T04:25:42;8.23;;;7.63;;
10469;SDS011;5282;47.052;15.458;2022-07-30T04:28:10;7.67;;;7.10;;
10469;SDS011;5282;47.052;15.458;2022-07-30T04:30:37;7.90;;;7.50;;
10469;SDS011;5282;47.052;15.458;2022-07-30T04:33:06;7.70;;;7.40;;
10469;SDS011;5282;47.052;15.458;2022-07-30T04:35:34;7.37;;;7.07;;
10469;SDS011;5282;47.052;15.458;2022-07-30T04:38:01;7.90;;;7.50;;
10469;SDS011;5282;47.052;15.458;2022-07-30T04:40:28;7.80;;;7.40;;
10469;SDS011;5282;47.052;15.458;2022-07-30T04:42:58;7.20;;;6.93;;
10469;SDS011;5282;47.052;15.458;2022-07-30T04:45:25;7.80;;;7.50;;
10469;SDS011;5282;47.052;15.458;2022-07-30T04:47:52;7.17;;;6.93;;
10469;SDS011;5282;47.052;15.458;2022-07-30T04:50:19;8.00;;;7.60;;
10469;SDS011;5282;47.052;15.458;2022-07-30T04:52:49;7.40;;;7.10;;
10469;SDS011;5282;47.052;15.458;2022-07-30T04:55:17;7.90;;;7.53;;
10469;SDS011;5282;47.052;15.458;2022-07-30T04:57:47;7.77;;;7.47;;
10469;SDS011;5282;47.052;15.458;2022-07-30T05:00:17;7.50;;;7.20;;
10469;SDS011;5282;47.052;15.458;2022-07-30T05:02:45;7.63;;;7.20;;
10469;SDS011;5282;47.052;15.458;2022-07-30T05:05:14;7.50;;;7.30;;
10469;SDS011;5282;47.052;15.458;2022-07-30T05:07:42;7.47;;;7.20;;
10469;SDS011;5282;47.052;15.458;2022-07-30T05:10:10;7.37;;;7.00;;
10469;SDS011;5282;47.052;15.458;2022-07-30T05:12:37;7.07;;;6.77;;
10469;SDS011;5282;47.052;15.458;2022-07-30T05:15:05;6.77;;;6.47;;
10469;SDS011;5282;47.052;15.458;2022-07-30T05:17:34;6.87;;;6.57;;
10469;SDS011;5282;47.052;15.458;2022-07-30T05:20:03;7.53;;;7.23;;
10469;SDS011;5282;47.052;15.458;2022-07-30T05:22:30;7.53;;;7.30;;
10469;SDS011;5282;47.052;15.458;2022-07-30T05:24:57;6.87;;;6.67;;
10469;SDS011;5282;47.052;15.458;2022-07-30T05:27:25;7.00;;;6.67;;
10469;SDS011;5282;47.052;15.458;2022-07-30T05:29:52;6.90;;;6.40;;
10469;SDS011;5282;47.052;15.458;2022-07-30T05:32:19;6.33;;;6.13;;
10469;SDS011;5282;47.052;15.458;2022-07-30T05:34:47;7.10;;;6.70;;
10469;SDS011;5282;47.052;15.458;2022-07-30T05:37:14;7.83;;;7.30;;
10469;SDS011;5282;47.052;15.458;2022-07-30T05:39:41;6.87;;;6.67;;
10469;SDS011;5282;47.052;15.458;2022-07-30T05:42:08;6.60;;;6.20;;
10469;SDS011;5282;47.052;15.458;2022-07-30T05:44:35;6.63;;;6.37;;
10469;SDS011;5282;47.052;15.458;2022-07-30T05:47:02;6.63;;;6.43;;
10469;SDS011;5282;47.052;15.458;2022-07-30T05:49:29;7.30;;;7.00;;
10469;SDS011;5282;47.052;15.458;2022-07-30T05:51:57;6.80;;;6.50;;
10469;SDS011;5282;47.052;15.458;2022-07-30T05:54:25;6.00;;;5.77;;
10469;SDS011;5282;47.052;15.458;2022-07-30T05:56:51;6.30;;;6.10;;
10469;SDS011;5282;47.052;15.458;2022-07-30T05:59:18;6.13;;;5.93;;
10469;SDS011;5282;47.052;15.458;2022-07-30T06:01:46;7.03;;;6.73;;
10469;SDS011;5282;47.052;15.458;2022-07-30T06:04:12;7.20;;;6.87;;
10469;SDS011;5282;47.052;15.458;2022-07-30T06:06:39;6.47;;;6.27;;
10469;SDS011;5282;47.052;15.458;2022-07-30T06:09:08;7.43;;;7.07;;
10469;SDS011;5282;47.052;15.458;2022-07-30T06:11:35;6.40;;;6.20;;
10469;SDS011;5282;47.052;15.458;2022-07-30T06:14:02;6.43;;;6.20;;
10469;SDS011;5282;47.052;15.458;2022-07-30T06:16:29;6.53;;;6.20;;
10469;SDS011;5282;47.052;15.458;2022-07-30T06:18:56;6.67;;;6.30;;
10469;SDS011;5282;47.052;15.458;2022-07-30T06:21:23;6.43;;;6.03;;
10469;SDS011;5282;47.052;15.458;2022-07-30T06:23:50;6.23;;;5.93;;
10469;SDS011;5282;47.052;15.458;2022-07-30T06:26:18;6.17;;;5.87;;
10469;SDS011;5282;47.052;15.458;2022-07-30T06:28:45;5.40;;;5.20;;
10469;SDS011;5282;47.052;15.458;2022-07-30T06:31:12;6.37;;;6.07;;
10469;SDS011;5282;47.052;15.458;2022-07-30T06:33:39;6.37;;;6.13;;
10469;SDS011;5282;47.052;15.458;2022-07-30T06:36:07;6.60;;;6.23;;
10469;SDS011;5282;47.052;15.458;2022-07-30T06:38:34;5.97;;;5.73;;
10469;SDS011;5282;47.052;15.458;2022-07-30T06:41:01;5.70;;;5.50;;
10469;SDS011;5282;47.052;15.458;2022-07-30T06:43:29;5.87;;;5.67;;
10469;SDS011;5282;47.052;15.458;2022-07-30T06:45:56;5.23;;;5.03;;
10469;SDS011;5282;47.052;15.458;2022-07-30T06:48:23;5.13;;;4.97;;
10469;SDS011;5282;47.052;15.458;2022-07-30T06:50:50;4.93;;;4.83;;
10469;SDS011;5282;47.052;15.458;2022-07-30T06:53:17;4.17;;;3.97;;
10469;SDS011;5282;47.052;15.458;2022-07-30T06:55:44;4.53;;;4.40;;
10469;SDS011;5282;47.052;15.458;2022-07-30T06:58:10;5.23;;;4.90;;
10469;SDS011;5282;47.052;15.458;2022-07-30T07:00:38;4.87;;;4.73;;
10469;SDS011;5282;47.052;15.458;2022-07-30T07:03:07;4.00;;;3.83;;
10469;SDS011;5282;47.052;15.458;2022-07-30T07:05:34;4.03;;;3.83;;
10469;SDS011;5282;47.052;15.458;2022-07-30T07:08:01;4.20;;;4.00;;
10469;SDS011;5282;47.052;15.458;2022-07-30T07:10:27;3.90;;;3.80;;
10469;SDS011;5282;47.052;15.458;2022-07-30T07:12:54;3.57;;;3.47;;
10469;SDS011;5282;47.052;15.458;2022-07-30T07:15:21;3.67;;;3.57;;
10469;SDS011;5282;47.052;15.458;2022-07-30T07:17:49;4.03;;;3.83;;
10469;SDS011;5282;47.052;15.458;2022-07-30T07:20:16;4.27;;;4.17;;
10469;SDS011;5282;47.052;15.458;2022-07-30T07:22:43;4.43;;;4.27;;
10469;SDS011;5282;47.052;15.458;2022-07-30T07:25:10;4.43;;;4.07;;
10469;SDS011;5282;47.052;15.458;2022-07-30T07:27:38;4.37;;;4.23;;
10469;SDS011;5282;47.052;15.458;2022-07-30T07:30:06;4.70;;;4.43;;
10469;SDS011;5282;47.052;15.458;2022-07-30T07:32:36;4.30;;;4.13;;
10469;SDS011;5282;47.052;15.458;2022-07-30T07:35:05;4.27;;;4.07;;
10469;SDS011;5282;47.052;15.458;2022-07-30T07:37:33;4.53;;;4.33;;
10469;SDS011;5282;47.052;15.458;2022-07-30T07:39:59;4.40;;;4.20;;
10469;SDS011;5282;47.052;15.458;2022-07-30T07:42:29;5.10;;;5.00;;
10469;SDS011;5282;47.052;15.458;2022-07-30T07:44:58;4.80;;;4.50;;
10469;SDS011;5282;47.052;15.458;2022-07-30T07:47:25;4.70;;;4.60;;
10469;SDS011;5282;47.052;15.458;2022-07-30T07:49:53;5.00;;;4.80;;
10469;SDS011;5282;47.052;15.458;2022-07-30T07:52:21;5.07;;;4.90;;
10469;SDS011;5282;47.052;15.458;2022-07-30T07:54:48;4.30;;;4.20;;
10469;SDS011;5282;47.052;15.458;2022-07-30T07:57:15;4.50;;;4.40;;
10469;SDS011;5282;47.052;15.458;2022-07-30T07:59:42;4.63;;;4.33;;
10469;SDS011;5282;47.052;15.458;2022-07-30T08:02:09;4.77;;;4.67;;
10469;SDS011;5282;47.052;15.458;2022-07-30T08:04:36;4.60;;;4.40;;
10469;SDS011;5282;47.052;15.458;2022-07-30T08:07:03;4.97;;;4.67;;
10469;SDS011;5282;47.052;15.458;2022-07-30T08:09:31;4.43;;;4.20;;
10469;SDS011;5282;47.052;15.458;2022-07-30T08:11:58;4.47;;;4.20;;
10469;SDS011;5282;47.052;15.458;2022-07-30T08:14:26;4.10;;;4.00;;
10469;SDS011;5282;47.052;15.458;2022-07-30T08:16:52;4.37;;;4.20;;
10469;SDS011;5282;47.052;15.458;2022-07-30T08:19:19;4.47;;;4.37;;
10469;SDS011;5282;47.052;15.458;2022-07-30T08:21:46;4.77;;;4.40;;
10469;SDS011;5282;47.052;15.458;2022-07-30T08:24:13;4.20;;;4.10;;
10469;SDS011;5282;47.052;15.458;2022-07-30T08:26:42;4.57;;;4.30;;
10469;SDS011;5282;47.052;15.458;2022-07-30T08:29:09;4.03;;;3.63;;
10469;SDS011;5282;47.052;15.458;2022-07-30T08:31:36;4.00;;;3.80;;
10469;SDS011;5282;47.052;15.458;2022-07-30T08:34:03;4.17;;;4.07;;
10469;SDS011;5282;47.052;15.458;2022-07-30T08:36:30;5.87;;;5.67;;
10469;SDS011;5282;47.052;15.458;2022-07-30T08:38:57;4.20;;;4.10;;
10469;SDS011;5282;47.052;15.458;2022-07-30T08:41:24;3.70;;;3.60;;
10469;SDS011;5282;47.052;15.458;2022-07-30T08:43:53;3.80;;;3.70;;
10469;SDS011;5282;47.052;15.458;2022-07-30T08:46:21;3.90;;;3.80;;
10469;SDS011;5282;47.052;15.458;2022-07-30T08:48:50;3.80;;;3.60;;
10469;SDS011;5282;47.052;15.458;2022-07-30T08:51:17;4.23;;;4.03;;
10469;SDS011;5282;47.052;15.458;2022-07-30T08:53:45;4.20;;;4.00;;
10469;SDS011;5282;47.052;15.458;2022-07-30T08:56:12;3.90;;;3.80;;
10469;SDS011;5282;47.052;15.458;2022-07-30T08:58:40;3.80;;;3.60;;
10469;SDS011;5282;47.052;15.458;2022-07-30T09:01:08;3.73;;;3.50;;
10469;SDS011;5282;47.052;15.458;2022-07-30T09:03:36;4.17;;;3.97;;
10469;SDS011;5282;47.052;15.458;2022-07-30T09:06:04;3.00;;;2.90;;
10469;SDS011;5282;47.052;15.458;2022-07-30T09:08:31;3.43;;;3.23;;
10469;SDS011;5282;47.052;15.458;2022-07-30T09:10:59;3.30;;;3.20;;
10469;SDS011;5282;47.052;15.458;2022-07-30T09:13:27;3.37;;;3.27;;
10469;SDS011;5282;47.052;15.458;2022-07-30T09:15:54;3.23;;;3.13;;
10469;SDS011;5282;47.052;15.458;2022-07-30T09:18:27;4.00;;;3.90;;
10469;SDS011;5282;47.052;15.458;2022-07-30T09:20:57;4.03;;;3.83;;
10469;SDS011;5282;47.052;15.458;2022-07-30T09:23:25;3.33;;;3.23;;
10469;SDS011;5282;47.052;15.458;2022-07-30T09:25:52;3.20;;;3.10;;
10469;SDS011;5282;47.052;15.458;2022-07-30T09:28:28;4.07;;;3.87;;
10469;SDS011;5282;47.052;15.458;2022-07-30T09:30:57;4.23;;;4.03;;
10469;SDS011;5282;47.052;15.458;2022-07-30T09:33:33;4.27;;;4.03;;
10469;SDS011;5282;47.052;15.458;2022-07-30T09:36:03;4.73;;;4.50;;
10469;SDS011;5282;47.052;15.458;2022-07-30T09:38:41;4.23;;;4.03;;
10469;SDS011;5282;47.052;15.458;2022-07-30T09:41:13;4.43;;;4.23;;
10469;SDS011;5282;47.052;15.458;2022-07-30T09:43:45;4.47;;;4.27;;
10469;SDS011;5282;47.052;15.458;2022-07-30T09:46:13;3.40;;;3.30;;
10469;SDS011;5282;47.052;15.458;2022-07-30T09:48:42;3.53;;;3.43;;
10469;SDS011;5282;47.052;15.458;2022-07-30T09:51:11;3.20;;;3.10;;
10469;SDS011;5282;47.052;15.458;2022-07-30T09:53:51;3.70;;;3.50;;
10469;SDS011;5282;47.052;15.458;2022-07-30T09:56:23;3.50;;;3.40;;
10469;SDS011;5282;47.052;15.458;2022-07-30T09:58:51;3.00;;;2.90;;
10469;SDS011;5282;47.052;15.458;2022-07-30T10:01:18;3.27;;;2.93;;
10469;SDS011;5282;47.052;15.458;2022-07-30T10:03:46;2.73;;;2.70;;
10469;SDS011;5282;47.052;15.458;2022-07-30T10:06:13;3.10;;;3.00;;
10469;SDS011;5282;47.052;15.458;2022-07-30T10:08:41;3.00;;;2.80;;
10469;SDS011;5282;47.052;15.458;2022-07-30T10:11:14;2.87;;;2.77;;
10469;SDS011;5282;47.052;15.458;2022-07-30T10:13:42;3.10;;;3.00;;
10469;SDS011;5282;47.052;15.458;2022-07-30T10:16:10;3.07;;;2.97;;
10469;SDS011;5282;47.052;15.458;2022-07-30T10:18:37;3.20;;;3.00;;
10469;SDS011;5282;47.052;15.458;2022-07-30T10:21:08;3.40;;;3.30;;
10469;SDS011;5282;47.052;15.458;2022-07-30T10:23:35;3.60;;;3.50;;
10469;SDS011;5282;47.052;15.458;2022-07-30T10:26:03;3.07;;;2.97;;
10469;SDS011;5282;47.052;15.458;2022-07-30T10:28:30;2.90;;;2.80;;
10469;SDS011;5282;47.052;15.458;2022-07-30T10:30:57;2.63;;;2.60;;
10469;SDS011;5282;47.052;15.458;2022-07-30T10:33:25;3.10;;;3.00;;
10469;SDS011;5282;47.052;15.458;2022-07-30T10:35:54;3.30;;;3.00;;
10469;SDS011;5282;47.052;15.458;2022-07-30T10:38:23;2.97;;;2.80;;
10469;SDS011;5282;47.052;15.458;2022-07-30T10:40:57;3.33;;;3.20;;
10469;SDS011;5282;47.052;15.458;2022-07-30T10:43:50;3.00;;;2.90;;
10469;SDS011;5282;47.052;15.458;2022-07-30T10:46:50;2.97;;;2.80;;
10469;SDS011;5282;47.052;15.458;2022-07-30T10:49:23;2.90;;;2.80;;
10469;SDS011;5282;47.052;15.458;2022-07-30T10:51:51;3.47;;;3.37;;
10469;SDS011;5282;47.052;15.458;2022-07-30T10:54:40;3.20;;;3.10;;
10469;SDS011;5282;47.052;15.458;2022-07-30T10:57:10;3.90;;;3.20;;
10469;SDS011;5282;47.052;15.458;2022-07-30T11:02:38;3.30;;;3.13;;
10469;SDS011;5282;47.052;15.458;2022-07-30T11:05:23;3.03;;;2.93;;
10469;SDS011;5282;47.052;15.458;2022-07-30T11:07:52;2.80;;;2.70;;
10469;SDS011;5282;47.052;15.458;2022-07-30T11:10:34;2.77;;;2.77;;
10469;SDS011;5282;47.052;15.458;2022-07-30T11:13:03;2.50;;;2.50;;
10469;SDS011;5282;47.052;15.458;2022-07-30T11:18:18;2.83;;;2.73;;
10469;SDS011;5282;47.052;15.458;2022-07-30T11:21:12;2.70;;;2.60;;
10469;SDS011;5282;47.052;15.458;2022-07-30T11:23:41;2.80;;;2.60;;
10469;SDS011;5282;47.052;15.458;2022-07-30T11:26:10;3.23;;;2.97;;
10469;SDS011;5282;47.052;15.458;2022-07-30T11:28:57;2.70;;;2.60;;
10469;SDS011;5282;47.052;15.458;2022-07-30T11:31:28;3.20;;;3.00;;
10469;SDS011;5282;47.052;15.458;2022-07-30T11:37:02;2.70;;;2.67;;
10469;SDS011;5282;47.052;15.458;2022-07-30T11:42:35;2.60;;;2.60;;
10469;SDS011;5282;47.052;15.458;2022-07-30T11:45:19;3.57;;;3.40;;
10469;SDS011;5282;47.052;15.458;2022-07-30T11:47:55;3.23;;;3.13;;
10469;SDS011;5282;47.052;15.458;2022-07-30T11:50:25;2.90;;;2.80;;
10469;SDS011;5282;47.052;15.458;2022-07-30T11:52:54;3.10;;;3.00;;
10469;SDS011;5282;47.052;15.458;2022-07-30T11:55:24;3.40;;;3.30;;
10469;SDS011;5282;47.052;15.458;2022-07-30T11:57:53;3.13;;;3.03;;
10469;SDS011;5282;47.052;15.458;2022-07-30T12:00:21;3.10;;;3.00;;
10469;SDS011;5282;47.052;15.458;2022-07-30T12:02:50;3.13;;;3.03;;
10469;SDS011;5282;47.052;15.458;2022-07-30T12:05:24;3.03;;;2.93;;
10469;SDS011;5282;47.052;15.458;2022-07-30T12:07:55;3.17;;;3.07;;
10469;SDS011;5282;47.052;15.458;2022-07-30T12:10:23;3.20;;;3.10;;
10469;SDS011;5282;47.052;15.458;2022-07-30T12:12:50;3.10;;;3.00;;
10469;SDS011;5282;47.052;15.458;2022-07-30T12:15:29;3.17;;;3.07;;
10469;SDS011;5282;47.052;15.458;2022-07-30T12:17:57;2.83;;;2.80;;
10469;SDS011;5282;47.052;15.458;2022-07-30T12:20:25;2.70;;;2.60;;
10469;SDS011;5282;47.052;15.458;2022-07-30T12:22:53;2.57;;;2.47;;
10469;SDS011;5282;47.052;15.458;2022-07-30T12:25:21;2.97;;;2.87;;
10469;SDS011;5282;47.052;15.458;2022-07-30T12:27:49;2.70;;;2.60;;
10469;SDS011;5282;47.052;15.458;2022-07-30T12:30:17;2.97;;;2.77;;
10469;SDS011;5282;47.052;15.458;2022-07-30T12:32:48;2.57;;;2.57;;
10469;SDS011;5282;47.052;15.458;2022-07-30T12:35:15;2.40;;;2.33;;
10469;SDS011;5282;47.052;15.458;2022-07-30T12:37:43;2.47;;;2.27;;
10469;SDS011;5282;47.052;15.458;2022-07-30T12:40:29;2.60;;;2.57;;
10469;SDS011;5282;47.052;15.458;2022-07-30T12:42:56;2.00;;;2.00;;
10469;SDS011;5282;47.052;15.458;2022-07-30T12:45:27;2.77;;;2.67;;
10469;SDS011;5282;47.052;15.458;2022-07-30T12:47:56;2.30;;;2.30;;
10469;SDS011;5282;47.052;15.458;2022-07-30T12:50:26;2.33;;;2.30;;
10469;SDS011;5282;47.052;15.458;2022-07-30T12:52:53;2.23;;;2.23;;
10469;SDS011;5282;47.052;15.458;2022-07-30T12:55:28;2.50;;;2.40;;
10469;SDS011;5282;47.052;15.458;2022-07-30T12:57:59;2.63;;;2.53;;
10469;SDS011;5282;47.052;15.458;2022-07-30T13:00:28;2.83;;;2.63;;
10469;SDS011;5282;47.052;15.458;2022-07-30T13:02:57;2.37;;;2.37;;
10469;SDS011;5282;47.052;15.458;2022-07-30T13:05:41;2.30;;;2.30;;
10469;SDS011;5282;47.052;15.458;2022-07-30T13:08:09;2.30;;;2.20;;
10469;SDS011;5282;47.052;15.458;2022-07-30T13:10:36;3.57;;;3.43;;
10469;SDS011;5282;47.052;15.458;2022-07-30T13:13:05;2.30;;;2.30;;
10469;SDS011;5282;47.052;15.458;2022-07-30T13:15:32;2.63;;;2.60;;
10469;SDS011;5282;47.052;15.458;2022-07-30T13:18:01;2.40;;;2.40;;
10469;SDS011;5282;47.052;15.458;2022-07-30T13:20:28;2.47;;;2.43;;
10469;SDS011;5282;47.052;15.458;2022-07-30T13:22:55;2.47;;;2.47;;
10469;SDS011;5282;47.052;15.458;2022-07-30T13:25:23;2.47;;;2.37;;
10469;SDS011;5282;47.052;15.458;2022-07-30T13:27:49;2.60;;;2.60;;
10469;SDS011;5282;47.052;15.458;2022-07-30T13:30:17;2.80;;;2.70;;
10469;SDS011;5282;47.052;15.458;2022-07-30T13:32:44;2.60;;;2.50;;
10469;SDS011;5282;47.052;15.458;2022-07-30T13:35:13;3.00;;;2.80;;
10469;SDS011;5282;47.052;15.458;2022-07-30T13:37:40;2.73;;;2.63;;
10469;SDS011;5282;47.052;15.458;2022-07-30T13:40:07;2.33;;;2.30;;
10469;SDS011;5282;47.052;15.458;2022-07-30T13:42:37;4.00;;;2.83;;
10469;SDS011;5282;47.052;15.458;2022-07-30T13:45:04;2.63;;;2.42;;
10469;SDS011;5282;47.052;15.458;2022-07-30T13:47:32;2.40;;;2.40;;
10469;SDS011;5282;47.052;15.458;2022-07-30T13:50:00;2.80;;;2.70;;
10469;SDS011;5282;47.052;15.458;2022-07-30T13:52:28;2.63;;;2.53;;
10469;SDS011;5282;47.052;15.458;2022-07-30T13:54:55;3.00;;;2.90;;
10469;SDS011;5282;47.052;15.458;2022-07-30T13:57:22;2.85;;;2.75;;
10469;SDS011;5282;47.052;15.458;2022-07-30T13:59:48;2.80;;;2.70;;
10469;SDS011;5282;47.052;15.458;2022-07-30T14:02:15;2.95;;;2.88;;
10469;SDS011;5282;47.052;15.458;2022-07-30T14:04:42;2.80;;;2.78;;
10469;SDS011;5282;47.052;15.458;2022-07-30T14:07:09;2.78;;;2.78;;
10469;SDS011;5282;47.052;15.458;2022-07-30T14:09:38;2.90;;;2.80;;
10469;SDS011;5282;47.052;15.458;2022-07-30T14:12:05;3.28;;;2.90;;
10469;SDS011;5282;47.052;15.458;2022-07-30T14:14:32;2.97;;;2.70;;
10469;SDS011;5282;47.052;15.458;2022-07-30T14:16:59;2.60;;;2.60;;
10469;SDS011;5282;47.052;15.458;2022-07-30T14:19:26;2.53;;;2.53;;
10469;SDS011;5282;47.052;15.458;2022-07-30T14:21:53;2.80;;;2.70;;
10469;SDS011;5282;47.052;15.458;2022-07-30T14:24:21;2.80;;;2.70;;
10469;SDS011;5282;47.052;15.458;2022-07-30T14:26:49;2.97;;;2.75;;
10469;SDS011;5282;47.052;15.458;2022-07-30T14:29:17;2.78;;;2.78;;
10469;SDS011;5282;47.052;15.458;2022-07-30T14:31:43;2.67;;;2.58;;
10469;SDS011;5282;47.052;15.458;2022-07-30T14:34:10;2.83;;;2.72;;
10469;SDS011;5282;47.052;15.458;2022-07-30T14:36:41;2.70;;;2.60;;
10469;SDS011;5282;47.052;15.458;2022-07-30T14:39:08;2.90;;;2.78;;
10469;SDS011;5282;47.052;15.458;2022-07-30T14:41:35;2.80;;;2.80;;
10469;SDS011;5282;47.052;15.458;2022-07-30T14:44:04;2.85;;;2.75;;
10469;SDS011;5282;47.052;15.458;2022-07-30T14:46:36;2.72;;;2.63;;
10469;SDS011;5282;47.052;15.458;2022-07-30T14:49:03;2.70;;;2.60;;
10469;SDS011;5282;47.052;15.458;2022-07-30T14:51:30;2.55;;;2.55;;
10469;SDS011;5282;47.052;15.458;2022-07-30T14:53:57;2.67;;;2.60;;
10469;SDS011;5282;47.052;15.458;2022-07-30T14:56:24;2.90;;;2.80;;
10469;SDS011;5282;47.052;15.458;2022-07-30T14:58:51;2.85;;;2.65;;
10469;SDS011;5282;47.052;15.458;2022-07-30T15:01:20;2.53;;;2.43;;
10469;SDS011;5282;47.052;15.458;2022-07-30T15:03:47;2.60;;;2.50;;
10469;SDS011;5282;47.052;15.458;2022-07-30T15:06:14;2.77;;;2.67;;
10469;SDS011;5282;47.052;15.458;2022-07-30T15:08:41;2.60;;;2.60;;
10469;SDS011;5282;47.052;15.458;2022-07-30T15:11:10;2.73;;;2.67;;